createdAt,value
2016-08-21T00:00:32.037Z,0
2016-08-21T00:01:33.091Z,0
2016-08-21T00:02:31.977Z,0
2016-08-21T00:03:31.413Z,0
2016-08-21T00:04:32.547Z,0
2016-08-21T00:05:31.996Z,0
2016-08-21T00:06:31.249Z,0
2016-08-21T00:07:32.621Z,0
2016-08-21T00:08:30.260Z,0
2016-08-21T00:09:30.930Z,0
2016-08-21T00:10:32.274Z,0
2016-08-21T00:11:32.250Z,0
2016-08-21T00:12:31.496Z,0
2016-08-21T00:13:31.485Z,0
2016-08-21T00:14:30.963Z,0
2016-08-21T00:15:32.128Z,0
2016-08-21T00:16:32.201Z,0
2016-08-21T00:17:31.941Z,0
2016-08-21T00:18:30.515Z,0
2016-08-21T00:19:32.109Z,0
2016-08-21T00:20:31.810Z,0
2016-08-21T00:21:32.183Z,0
2016-08-21T00:22:31.433Z,0
2016-08-21T00:23:32.073Z,0
2016-08-21T00:24:31.930Z,0
2016-08-21T00:25:31.604Z,0
2016-08-21T00:26:31.048Z,0
2016-08-21T00:27:31.893Z,0
2016-08-21T00:28:30.963Z,0
2016-08-21T00:29:31.582Z,0
2016-08-21T00:30:31.954Z,0
2016-08-21T00:31:31.303Z,0
2016-08-21T00:32:31.649Z,0
2016-08-21T00:33:30.738Z,0
2016-08-21T00:34:31.362Z,0
2016-08-21T00:35:31.306Z,0
2016-08-21T00:36:30.603Z,0
2016-08-21T00:37:31.032Z,0
2016-08-21T00:38:30.991Z,0
2016-08-21T00:39:30.237Z,0
2016-08-21T00:40:29.512Z,0
2016-08-21T00:41:30.147Z,0
2016-08-21T00:42:31.199Z,0
2016-08-21T00:43:31.346Z,0
2016-08-21T00:44:30.723Z,0
2016-08-21T00:45:30.692Z,0
2016-08-21T00:46:30.114Z,0
2016-08-21T00:47:30.624Z,0
2016-08-21T00:48:30.523Z,0
2016-08-21T00:49:31.112Z,0
2016-08-21T00:50:30.413Z,0
2016-08-21T00:51:30.394Z,0
2016-08-21T00:52:30.319Z,0
2016-08-21T00:53:30.488Z,0
2016-08-21T00:54:28.823Z,0
2016-08-21T00:55:29.698Z,0
2016-08-21T00:56:30.375Z,0
2016-08-21T00:57:30.092Z,0
2016-08-21T00:58:30.450Z,0
2016-08-21T00:59:29.702Z,0
2016-08-21T01:00:30.211Z,0
2016-08-21T01:01:28.508Z,0
2016-08-21T01:02:29.584Z,0
2016-08-21T01:03:29.835Z,0
2016-08-21T01:04:29.781Z,0
2016-08-21T01:05:29.924Z,0
2016-08-21T01:06:29.885Z,0
2016-08-21T01:07:29.624Z,0
2016-08-21T01:08:30.582Z,0
2016-08-21T01:09:29.050Z,0
2016-08-21T01:10:29.685Z,0
2016-08-21T01:11:29.634Z,0
2016-08-21T01:12:29.607Z,0
2016-08-21T01:13:28.679Z,0
2016-08-21T01:14:29.511Z,0
2016-08-21T01:15:29.269Z,0
2016-08-21T01:16:29.621Z,0
2016-08-21T01:17:28.456Z,0
2016-08-21T01:18:28.825Z,0
2016-08-21T01:19:28.380Z,0
2016-08-21T01:20:29.027Z,0
2016-08-21T01:21:27.587Z,0
2016-08-21T01:22:28.232Z,0
2016-08-21T01:23:27.561Z,0
2016-08-21T01:24:28.834Z,0
2016-08-21T01:25:29.234Z,0
2016-08-21T01:26:28.049Z,0
2016-08-21T01:27:28.005Z,0
2016-08-21T01:28:27.985Z,0
2016-08-21T01:29:28.604Z,0
2016-08-21T01:30:28.294Z,0
2016-08-21T01:31:28.904Z,0
2016-08-21T01:32:28.854Z,0
2016-08-21T01:33:27.719Z,0
2016-08-21T01:34:28.379Z,0
2016-08-21T01:35:28.045Z,0
2016-08-21T01:36:28.284Z,0
2016-08-21T01:37:27.749Z,0
2016-08-21T01:38:28.258Z,0
2016-08-21T01:39:28.166Z,0
2016-08-21T01:40:27.102Z,0
2016-08-21T01:41:28.073Z,0
2016-08-21T01:42:28.031Z,0
2016-08-21T01:43:27.258Z,0
2016-08-21T01:44:27.339Z,0
2016-08-21T01:45:26.456Z,0
2016-08-21T01:46:28.035Z,0
2016-08-21T01:47:27.285Z,0
2016-08-21T01:48:27.922Z,0
2016-08-21T01:49:26.974Z,0
2016-08-21T01:50:27.825Z,0
2016-08-21T01:51:27.599Z,0
2016-08-21T01:52:26.835Z,0
2016-08-21T01:53:26.803Z,0
2016-08-21T01:54:26.417Z,0
2016-08-21T01:55:26.698Z,0
2016-08-21T01:56:26.861Z,0
2016-08-21T01:57:27.313Z,0
2016-08-21T01:58:26.775Z,0
2016-08-21T01:59:26.704Z,0
2016-08-21T02:00:27.164Z,0
2016-08-21T02:01:25.727Z,0
2016-08-21T02:02:27.104Z,0
2016-08-21T02:03:26.333Z,0
2016-08-21T02:04:26.975Z,0
2016-08-21T02:05:26.222Z,0
2016-08-21T02:06:27.118Z,0
2016-08-21T02:07:27.051Z,0
2016-08-21T02:08:26.797Z,0
2016-08-21T02:09:26.048Z,0
2016-08-21T02:10:26.064Z,0
2016-08-21T02:11:25.970Z,0
2016-08-21T02:12:26.645Z,0
2016-08-21T02:13:25.873Z,0
2016-08-21T02:14:25.800Z,0
2016-08-21T02:15:26.490Z,0
2016-08-21T02:16:25.223Z,0
2016-08-21T02:17:25.873Z,0
2016-08-21T02:18:26.313Z,0
2016-08-21T02:19:25.583Z,0
2016-08-21T02:20:24.902Z,0
2016-08-21T02:21:26.394Z,0
2016-08-21T02:22:25.455Z,0
2016-08-21T02:23:26.097Z,0
2016-08-21T02:24:25.365Z,0
2016-08-21T02:25:25.308Z,0
2016-08-21T02:26:25.941Z,0
2016-08-21T02:27:25.923Z,0
2016-08-21T02:28:24.908Z,0
2016-08-21T02:29:25.847Z,0
2016-08-21T02:30:25.768Z,0
2016-08-21T02:31:25.782Z,0
2016-08-21T02:32:25.872Z,0
2016-08-21T02:33:25.823Z,0
2016-08-21T02:34:25.789Z,0
2016-08-21T02:35:25.088Z,0
2016-08-21T02:36:24.094Z,0
2016-08-21T02:37:25.482Z,0
2016-08-21T02:38:25.401Z,0
2016-08-21T02:39:25.424Z,0
2016-08-21T02:40:25.503Z,0
2016-08-21T02:41:25.263Z,0
2016-08-21T02:42:25.423Z,0
2016-08-21T02:43:24.472Z,0
2016-08-21T02:44:24.639Z,0
2016-08-21T02:45:25.091Z,0
2016-08-21T02:46:25.254Z,0
2016-08-21T02:47:24.275Z,0
2016-08-21T02:48:24.449Z,0
2016-08-21T02:49:24.201Z,0
2016-08-21T02:50:24.863Z,0
2016-08-21T02:51:24.083Z,0
2016-08-21T02:52:24.313Z,0
2016-08-21T02:53:24.004Z,0
2016-08-21T02:54:24.645Z,0
2016-08-21T02:55:23.932Z,0
2016-08-21T02:56:23.853Z,0
2016-08-21T02:57:24.276Z,0
2016-08-21T02:58:24.668Z,0
2016-08-21T02:59:23.734Z,0
2016-08-21T03:00:24.383Z,0
2016-08-21T03:01:24.323Z,0
2016-08-21T03:02:23.574Z,0
2016-08-21T03:03:24.434Z,0
2016-08-21T03:04:24.196Z,0
2016-08-21T03:05:24.427Z,0
2016-08-21T03:06:24.123Z,0
2016-08-21T03:07:22.651Z,0
2016-08-21T03:08:23.305Z,0
2016-08-21T03:09:23.250Z,0
2016-08-21T03:10:23.222Z,0
2016-08-21T03:11:23.171Z,0
2016-08-21T03:12:23.814Z,0
2016-08-21T03:13:23.380Z,0
2016-08-21T03:14:23.026Z,0
2016-08-21T03:15:22.975Z,0
2016-08-21T03:16:24.239Z,0
2016-08-21T03:17:22.897Z,0
2016-08-21T03:18:23.563Z,0
2016-08-21T03:19:23.502Z,0
2016-08-21T03:20:23.524Z,0
2016-08-21T03:21:23.394Z,0
2016-08-21T03:22:23.374Z,0
2016-08-21T03:23:23.293Z,0
2016-08-21T03:24:22.563Z,0
2016-08-21T03:25:23.226Z,0
2016-08-21T03:26:23.374Z,0
2016-08-21T03:27:22.439Z,0
2016-08-21T03:28:21.692Z,0
2016-08-21T03:29:23.013Z,0
2016-08-21T03:30:22.272Z,0
2016-08-21T03:31:22.932Z,0
2016-08-21T03:32:23.113Z,0
2016-08-21T03:33:20.746Z,0
2016-08-21T03:34:22.793Z,0
2016-08-21T03:35:22.053Z,0
2016-08-21T03:36:22.012Z,0
2016-08-21T03:37:21.978Z,0
2016-08-21T03:38:22.602Z,0
2016-08-21T03:39:21.556Z,0
2016-08-21T03:40:22.512Z,0
2016-08-21T03:41:22.028Z,0
2016-08-21T03:42:22.412Z,0
2016-08-21T03:43:21.726Z,0
2016-08-21T03:44:22.342Z,0
2016-08-21T03:45:21.613Z,0
2016-08-21T03:46:22.254Z,0
2016-08-21T03:47:22.186Z,0
2016-08-21T03:48:21.440Z,0
2016-08-21T03:49:22.403Z,0
2016-08-21T03:50:21.349Z,0
2016-08-21T03:51:20.894Z,0
2016-08-21T03:52:21.257Z,0
2016-08-21T03:53:21.207Z,0
2016-08-21T03:54:21.901Z,0
2016-08-21T03:55:21.112Z,0
2016-08-21T03:56:21.081Z,0
2016-08-21T03:57:20.354Z,0
2016-08-21T03:58:21.673Z,0
2016-08-21T03:59:21.612Z,0
2016-08-21T04:00:20.201Z,0
2016-08-21T04:01:20.833Z,0
2016-08-21T04:02:21.707Z,0
2016-08-21T04:03:20.942Z,0
2016-08-21T04:04:21.842Z,0
2016-08-21T04:05:21.362Z,0
2016-08-21T04:06:21.512Z,0
2016-08-21T04:07:21.468Z,0
2016-08-21T04:08:21.412Z,0
2016-08-21T04:09:20.551Z,0
2016-08-21T04:10:21.522Z,0
2016-08-21T04:11:20.352Z,0
2016-08-21T04:12:19.823Z,0
2016-08-21T04:13:21.033Z,0
2016-08-21T04:14:20.839Z,0
2016-08-21T04:15:21.299Z,0
2016-08-21T04:16:21.247Z,0
2016-08-21T04:17:20.791Z,0
2016-08-21T04:18:20.074Z,0
2016-08-21T04:19:20.222Z,0
2016-08-21T04:20:20.863Z,0
2016-08-21T04:21:20.671Z,0
2016-08-21T04:22:19.852Z,0
2016-08-21T04:23:20.957Z,0
2016-08-21T04:24:20.680Z,0
2016-08-21T04:25:20.838Z,0
2016-08-21T04:26:20.789Z,0
2016-08-21T04:27:20.521Z,0
2016-08-21T04:28:20.469Z,0
2016-08-21T04:29:20.433Z,0
2016-08-21T04:30:20.178Z,0
2016-08-21T04:31:19.699Z,0
2016-08-21T04:32:20.331Z,0
2016-08-21T04:33:19.987Z,0
2016-08-21T04:34:19.366Z,0
2016-08-21T04:35:20.134Z,0
2016-08-21T04:36:19.973Z,0
2016-08-21T04:37:19.414Z,0
2016-08-21T04:38:19.848Z,0
2016-08-21T04:39:20.168Z,0
2016-08-21T04:40:19.751Z,0
2016-08-21T04:41:19.682Z,0
2016-08-21T04:42:19.642Z,0
2016-08-21T04:43:19.789Z,0
2016-08-21T04:44:18.836Z,0
2016-08-21T04:45:19.511Z,0
2016-08-21T04:46:19.438Z,0
2016-08-21T04:47:19.432Z,0
2016-08-21T04:48:18.642Z,0
2016-08-21T04:49:19.322Z,5
2016-08-21T04:50:19.540Z,5
2016-08-21T04:51:19.213Z,5
2016-08-21T04:52:19.144Z,5
2016-08-21T04:53:19.130Z,5
2016-08-21T04:54:19.278Z,5
2016-08-21T04:55:19.291Z,5
2016-08-21T04:56:18.715Z,5
2016-08-21T04:57:18.983Z,5
2016-08-21T04:58:19.176Z,5
2016-08-21T04:59:18.343Z,5
2016-08-21T05:00:18.780Z,5
2016-08-21T05:01:19.150Z,10
2016-08-21T05:02:18.192Z,10
2016-08-21T05:03:18.649Z,10
2016-08-21T05:04:18.101Z,10
2016-08-21T05:05:17.853Z,10
2016-08-21T05:06:18.702Z,10
2016-08-21T05:07:18.439Z,10
2016-08-21T05:08:18.420Z,10
2016-08-21T05:09:16.953Z,10
2016-08-21T05:10:17.622Z,10
2016-08-21T05:11:16.892Z,15
2016-08-21T05:12:18.719Z,15
2016-08-21T05:13:18.207Z,15
2016-08-21T05:14:16.832Z,15
2016-08-21T05:15:17.532Z,15
2016-08-21T05:16:16.632Z,15
2016-08-21T05:17:17.994Z,15
2016-08-21T05:18:17.952Z,15
2016-08-21T05:19:17.902Z,15
2016-08-21T05:20:18.048Z,15
2016-08-21T05:21:18.021Z,15
2016-08-21T05:22:17.250Z,15
2016-08-21T05:23:17.207Z,15
2016-08-21T05:24:17.650Z,20
2016-08-21T05:25:16.912Z,20
2016-08-21T05:26:17.773Z,20
2016-08-21T05:27:17.001Z,20
2016-08-21T05:28:17.472Z,20
2016-08-21T05:29:16.020Z,20
2016-08-21T05:30:18.198Z,20
2016-08-21T05:31:16.629Z,20
2016-08-21T05:32:16.772Z,20
2016-08-21T05:33:15.832Z,20
2016-08-21T05:34:17.212Z,20
2016-08-21T05:35:17.532Z,20
2016-08-21T05:36:16.387Z,15
2016-08-21T05:37:17.477Z,15
2016-08-21T05:38:16.581Z,15
2016-08-21T05:39:16.282Z,15
2016-08-21T05:40:17.096Z,15
2016-08-21T05:41:16.862Z,15
2016-08-21T05:42:17.051Z,15
2016-08-21T05:43:16.049Z,15
2016-08-21T05:44:16.343Z,15
2016-08-21T05:45:16.682Z,15
2016-08-21T05:46:16.649Z,15
2016-08-21T05:47:16.583Z,15
2016-08-21T05:48:15.818Z,15
2016-08-21T05:49:15.782Z,15
2016-08-21T05:50:15.963Z,15
2016-08-21T05:51:16.095Z,15
2016-08-21T05:52:15.005Z,10
2016-08-21T05:53:16.335Z,10
2016-08-21T05:54:16.455Z,10
2016-08-21T05:55:15.522Z,10
2016-08-21T05:56:16.213Z,10
2016-08-21T05:57:16.183Z,10
2016-08-21T05:58:15.362Z,10
2016-08-21T05:59:15.312Z,10
2016-08-21T06:00:15.972Z,10
2016-08-21T06:01:15.421Z,10
2016-08-21T06:02:15.202Z,10
2016-08-21T06:03:15.929Z,10
2016-08-21T06:04:15.802Z,15
2016-08-21T06:05:15.732Z,15
2016-08-21T06:06:15.702Z,15
2016-08-21T06:07:15.842Z,15
2016-08-21T06:08:15.609Z,15
2016-08-21T06:09:15.555Z,15
2016-08-21T06:10:15.502Z,15
2016-08-21T06:11:15.463Z,15
2016-08-21T06:12:15.426Z,15
2016-08-21T06:13:14.664Z,20
2016-08-21T06:14:14.343Z,20
2016-08-21T06:15:15.287Z,20
2016-08-21T06:16:15.277Z,20
2016-08-21T06:17:13.793Z,20
2016-08-21T06:18:14.502Z,20
2016-08-21T06:19:14.393Z,20
2016-08-21T06:20:14.355Z,25
2016-08-21T06:21:15.204Z,25
2016-08-21T06:22:14.277Z,25
2016-08-21T06:23:14.398Z,25
2016-08-21T06:24:13.465Z,25
2016-08-21T06:25:14.300Z,25
2016-08-21T06:26:13.359Z,25
2016-08-21T06:27:14.725Z,25
2016-08-21T06:28:14.661Z,25
2016-08-21T06:29:13.915Z,25
2016-08-21T06:30:13.864Z,20
2016-08-21T06:31:14.555Z,20
2016-08-21T06:32:14.480Z,20
2016-08-21T06:33:13.713Z,20
2016-08-21T06:34:14.574Z,20
2016-08-21T06:35:14.053Z,20
2016-08-21T06:36:14.483Z,20
2016-08-21T06:37:14.330Z,20
2016-08-21T06:38:14.393Z,20
2016-08-21T06:39:13.659Z,20
2016-08-21T06:40:13.445Z,20
2016-08-21T06:41:14.243Z,20
2016-08-21T06:42:14.008Z,20
2016-08-21T06:43:13.993Z,20
2016-08-21T06:44:13.945Z,20
2016-08-21T06:45:12.693Z,25
2016-08-21T06:46:13.317Z,25
2016-08-21T06:47:13.773Z,30
2016-08-21T06:48:13.844Z,30
2016-08-21T06:49:13.931Z,30
2016-08-21T06:50:13.875Z,30
2016-08-21T06:51:12.893Z,30
2016-08-21T06:52:12.856Z,30
2016-08-21T06:53:13.004Z,30
2016-08-21T06:54:12.753Z,30
2016-08-21T06:55:12.729Z,30
2016-08-21T06:56:13.382Z,30
2016-08-21T06:57:13.722Z,30
2016-08-21T06:58:13.511Z,30
2016-08-21T06:59:12.634Z,30
2016-08-21T07:00:12.679Z,30
2016-08-21T07:01:11.718Z,30
2016-08-21T07:02:12.376Z,35
2016-08-21T07:03:12.326Z,35
2016-08-21T07:04:12.982Z,40
2016-08-21T07:05:12.985Z,40
2016-08-21T07:06:13.139Z,40
2016-08-21T07:07:12.842Z,45
2016-08-21T07:08:13.485Z,45
2016-08-21T07:09:12.447Z,45
2016-08-21T07:10:12.897Z,45
2016-08-21T07:11:11.468Z,50
2016-08-21T07:12:12.101Z,50
2016-08-21T07:13:11.384Z,50
2016-08-21T07:14:12.083Z,50
2016-08-21T07:15:12.668Z,50
2016-08-21T07:16:12.611Z,50
2016-08-21T07:17:11.684Z,45
2016-08-21T07:18:12.333Z,45
2016-08-21T07:19:12.288Z,45
2016-08-21T07:20:26.433Z,45
2016-08-21T07:21:12.575Z,45
2016-08-21T07:22:11.450Z,45
2016-08-21T07:23:12.077Z,45
2016-08-21T07:24:10.649Z,45
2016-08-21T07:25:10.276Z,45
2016-08-21T07:26:12.194Z,45
2016-08-21T07:27:11.280Z,45
2016-08-21T07:28:10.451Z,45
2016-08-21T07:29:11.802Z,50
2016-08-21T07:30:11.772Z,50
2016-08-21T07:31:11.937Z,50
2016-08-21T07:32:12.093Z,50
2016-08-21T07:33:11.127Z,50
2016-08-21T07:34:10.373Z,50
2016-08-21T07:35:11.524Z,50
2016-08-21T07:36:10.782Z,50
2016-08-21T07:37:10.942Z,55
2016-08-21T07:38:11.473Z,55
2016-08-21T07:39:12.554Z,55
2016-08-21T07:40:10.602Z,55
2016-08-21T07:41:09.862Z,60
2016-08-21T07:42:11.232Z,60
2016-08-21T07:43:10.472Z,60
2016-08-21T07:44:11.111Z,55
2016-08-21T07:45:10.815Z,55
2016-08-21T07:46:10.532Z,55
2016-08-21T07:47:10.492Z,55
2016-08-21T07:48:10.943Z,50
2016-08-21T07:49:09.494Z,45
2016-08-21T07:50:10.843Z,45
2016-08-21T07:51:10.832Z,45
2016-08-21T07:52:10.052Z,45
2016-08-21T07:53:10.993Z,45
2016-08-21T07:54:10.684Z,45
2016-08-21T07:55:10.111Z,45
2016-08-21T07:56:09.379Z,45
2016-08-21T07:57:09.824Z,45
2016-08-21T07:58:09.975Z,45
2016-08-21T07:59:10.847Z,45
2016-08-21T08:00:09.876Z,45
2016-08-21T08:01:10.623Z,40
2016-08-21T08:02:10.505Z,40
2016-08-21T08:03:09.543Z,40
2016-08-21T08:04:09.493Z,40
2016-08-21T08:05:10.751Z,35
2016-08-21T08:06:09.412Z,30
2016-08-21T08:07:09.352Z,30
2016-08-21T08:08:10.102Z,25
2016-08-21T08:09:10.073Z,25
2016-08-21T08:10:10.311Z,20
2016-08-21T08:11:10.307Z,20
2016-08-21T08:12:10.046Z,20
2016-08-21T08:13:09.767Z,25
2016-08-21T08:14:09.783Z,30
2016-08-21T08:15:09.703Z,35
2016-08-21T08:16:08.938Z,35
2016-08-21T08:17:08.891Z,35
2016-08-21T08:18:08.853Z,35
2016-08-21T08:19:09.542Z,35
2016-08-21T08:20:08.480Z,35
2016-08-21T08:21:09.622Z,35
2016-08-21T08:22:08.745Z,35
2016-08-21T08:23:09.339Z,35
2016-08-21T08:24:08.559Z,35
2016-08-21T08:25:08.720Z,35
2016-08-21T08:26:08.493Z,30
2016-08-21T08:27:09.403Z,30
2016-08-21T08:28:07.682Z,30
2016-08-21T08:29:09.145Z,30
2016-08-21T08:30:08.992Z,30
2016-08-21T08:31:09.999Z,25
2016-08-21T08:32:09.513Z,25
2016-08-21T08:33:09.110Z,20
2016-08-21T08:34:08.864Z,20
2016-08-21T08:35:08.803Z,20
2016-08-21T08:36:07.328Z,15
2016-08-21T08:37:07.304Z,15
2016-08-21T08:38:07.955Z,15
2016-08-21T08:39:08.119Z,15
2016-08-21T08:40:08.549Z,15
2016-08-21T08:41:07.514Z,15
2016-08-21T08:42:07.782Z,10
2016-08-21T08:43:07.931Z,10
2016-08-21T08:44:08.781Z,10
2016-08-21T08:45:08.295Z,10
2016-08-21T08:46:08.474Z,10
2016-08-21T08:47:06.150Z,10
2016-08-21T08:48:08.183Z,10
2016-08-21T08:49:07.443Z,15
2016-08-21T08:50:07.813Z,15
2016-08-21T08:51:06.603Z,20
2016-08-21T08:52:07.873Z,25
2016-08-21T08:53:07.504Z,25
2016-08-21T08:54:07.867Z,30
2016-08-21T08:55:07.133Z,35
2016-08-21T08:56:06.784Z,35
2016-08-21T08:57:06.365Z,40
2016-08-21T08:58:07.684Z,40
2016-08-21T08:59:07.622Z,35
2016-08-21T09:00:07.112Z,30
2016-08-21T09:01:06.147Z,30
2016-08-21T09:02:07.524Z,30
2016-08-21T09:03:07.496Z,25
2016-08-21T09:04:05.991Z,25
2016-08-21T09:05:07.441Z,25
2016-08-21T09:06:06.795Z,25
2016-08-21T09:07:07.249Z,30
2016-08-21T09:08:06.525Z,40
2016-08-21T09:09:07.371Z,45
2016-08-21T09:10:06.644Z,50
2016-08-21T09:11:04.977Z,50
2016-08-21T09:12:07.094Z,55
2016-08-21T09:13:05.557Z,60
2016-08-21T09:14:06.272Z,60
2016-08-21T09:15:06.157Z,55
2016-08-21T09:16:05.662Z,50
2016-08-21T09:17:06.300Z,50
2016-08-21T09:18:06.272Z,50
2016-08-21T09:19:05.982Z,55
2016-08-21T09:20:06.631Z,50
2016-08-21T09:21:06.639Z,50
2016-08-21T09:22:06.590Z,55
2016-08-21T09:23:06.484Z,50
2016-08-21T09:24:06.643Z,50
2016-08-21T09:25:06.399Z,50
2016-08-21T09:26:05.354Z,45
2016-08-21T09:27:06.299Z,40
2016-08-21T09:28:05.258Z,40
2016-08-21T09:29:06.803Z,40
2016-08-21T09:30:05.492Z,45
2016-08-21T09:31:06.096Z,50
2016-08-21T09:32:05.573Z,45
2016-08-21T09:33:06.026Z,45
2016-08-21T09:34:05.982Z,45
2016-08-21T09:35:06.212Z,40
2016-08-21T09:36:06.071Z,35
2016-08-21T09:37:05.336Z,40
2016-08-21T09:38:03.955Z,45
2016-08-21T09:39:05.083Z,50
2016-08-21T09:40:04.479Z,50
2016-08-21T09:41:06.079Z,45
2016-08-21T09:42:05.806Z,45
2016-08-21T09:43:05.062Z,50
2016-08-21T09:44:04.307Z,55
2016-08-21T09:45:05.439Z,50
2016-08-21T09:46:05.118Z,50
2016-08-21T09:47:05.544Z,50
2016-08-21T09:48:04.629Z,50
2016-08-21T09:49:03.880Z,50
2016-08-21T09:50:03.808Z,50
2016-08-21T09:51:04.474Z,50
2016-08-21T09:52:05.121Z,60
2016-08-21T09:53:05.264Z,70
2016-08-21T09:54:04.349Z,75
2016-08-21T09:55:05.183Z,80
2016-08-21T09:56:04.225Z,80
2016-08-21T09:57:04.378Z,70
2016-08-21T09:58:03.523Z,70
2016-08-21T09:59:04.803Z,70
2016-08-21T10:00:04.750Z,70
2016-08-21T10:01:04.894Z,80
2016-08-21T10:02:03.933Z,85
2016-08-21T10:03:03.892Z,80
2016-08-21T10:04:04.764Z,75
2016-08-21T10:05:03.803Z,70
2016-08-21T10:06:03.962Z,70
2016-08-21T10:07:03.733Z,75
2016-08-21T10:08:03.664Z,80
2016-08-21T10:09:03.804Z,85
2016-08-21T10:10:03.569Z,90
2016-08-21T10:11:04.223Z,90
2016-08-21T10:12:04.197Z,80
2016-08-21T10:13:04.147Z,70
2016-08-21T10:14:04.089Z,70
2016-08-21T10:15:03.560Z,70
2016-08-21T10:16:03.518Z,75
2016-08-21T10:17:04.015Z,75
2016-08-21T10:18:03.896Z,70
2016-08-21T10:19:03.149Z,70
2016-08-21T10:20:03.794Z,70
2016-08-21T10:21:03.295Z,70
2016-08-21T10:22:03.995Z,70
2016-08-21T10:23:03.897Z,70
2016-08-21T10:24:01.740Z,75
2016-08-21T10:25:04.273Z,75
2016-08-21T10:26:03.537Z,80
2016-08-21T10:27:04.496Z,80
2016-08-21T10:28:02.263Z,80
2016-08-21T10:29:03.775Z,75
2016-08-21T10:30:03.948Z,75
2016-08-21T10:31:03.274Z,80
2016-08-21T10:32:01.904Z,85
2016-08-21T10:33:03.194Z,95
2016-08-21T10:34:03.359Z,95
2016-08-21T10:35:03.144Z,110
2016-08-21T10:36:02.558Z,100
2016-08-21T10:37:02.304Z,95
2016-08-21T10:38:01.591Z,95
2016-08-21T10:39:02.028Z,95
2016-08-21T10:40:03.093Z,95
2016-08-21T10:41:02.832Z,100
2016-08-21T10:42:02.775Z,100
2016-08-21T10:43:02.774Z,95
2016-08-21T10:44:01.990Z,95
2016-08-21T10:45:02.154Z,95
2016-08-21T10:46:02.705Z,95
2016-08-21T10:47:01.856Z,90
2016-08-21T10:48:02.525Z,95
2016-08-21T10:49:02.684Z,95
2016-08-21T10:50:02.654Z,95
2016-08-21T10:51:01.889Z,95
2016-08-21T10:52:02.125Z,95
2016-08-21T10:53:01.113Z,95
2016-08-21T10:54:00.830Z,95
2016-08-21T10:55:01.683Z,90
2016-08-21T10:56:02.380Z,85
2016-08-21T10:57:02.086Z,90
2016-08-21T10:58:01.634Z,90
2016-08-21T10:59:02.015Z,90
2016-08-21T11:00:01.990Z,90
2016-08-21T11:01:01.963Z,90
2016-08-21T11:01:59.269Z,85
2016-08-21T11:03:02.033Z,80
2016-08-21T11:04:01.990Z,75
2016-08-21T11:05:01.025Z,75
2016-08-21T11:06:01.871Z,75
2016-08-21T11:07:00.945Z,70
2016-08-21T11:08:01.816Z,70
2016-08-21T11:09:01.595Z,65
2016-08-21T11:10:00.126Z,70
2016-08-21T11:11:00.071Z,70
2016-08-21T11:12:00.621Z,70
2016-08-21T11:13:00.541Z,60
2016-08-21T11:14:01.227Z,55
2016-08-21T11:15:01.487Z,55
2016-08-21T11:15:59.112Z,60
2016-08-21T11:17:00.690Z,65
2016-08-21T11:18:00.837Z,75
2016-08-21T11:19:00.597Z,80
2016-08-21T11:19:59.882Z,75
2016-08-21T11:21:00.493Z,75
2016-08-21T11:21:59.535Z,70
2016-08-21T11:23:00.609Z,70
2016-08-21T11:24:00.766Z,90
2016-08-21T11:25:00.124Z,105
2016-08-21T11:25:59.849Z,85
2016-08-21T11:27:00.262Z,100
2016-08-21T11:27:59.700Z,100
2016-08-21T11:28:59.968Z,105
2016-08-21T11:30:00.621Z,120
2016-08-21T11:31:00.540Z,135
2016-08-21T11:32:00.025Z,135
2016-08-21T11:33:01.145Z,140
2016-08-21T11:33:59.736Z,120
2016-08-21T11:35:00.542Z,145
2016-08-21T11:36:00.329Z,150
2016-08-21T11:36:59.583Z,100
2016-08-21T11:37:59.754Z,150
2016-08-21T11:38:59.479Z,170
2016-08-21T11:39:59.659Z,160
2016-08-21T11:40:59.600Z,125
2016-08-21T11:41:57.944Z,130
2016-08-21T11:42:59.294Z,155
2016-08-21T11:43:59.691Z,115
2016-08-21T11:44:59.208Z,115
2016-08-21T11:45:57.977Z,165
2016-08-21T11:46:59.552Z,170
2016-08-21T11:47:59.264Z,90
2016-08-21T11:49:00.154Z,80
2016-08-21T11:49:58.986Z,70
2016-08-21T11:50:58.974Z,60
2016-08-21T11:51:58.206Z,55
2016-08-21T11:52:57.651Z,50
2016-08-21T11:53:58.810Z,50
2016-08-21T11:54:59.679Z,50
2016-08-21T11:55:58.013Z,65
2016-08-21T11:56:58.839Z,85
2016-08-21T11:57:57.968Z,90
2016-08-21T11:58:59.275Z,95
2016-08-21T11:59:58.629Z,150
2016-08-21T12:00:58.726Z,160
2016-08-21T12:01:58.451Z,180
2016-08-21T12:02:58.594Z,100
2016-08-21T12:03:58.786Z,95
2016-08-21T12:04:59.192Z,95
2016-08-21T12:05:58.452Z,90
2016-08-21T12:06:58.922Z,95
2016-08-21T12:07:58.171Z,105
2016-08-21T12:08:59.323Z,105
2016-08-21T12:09:59.188Z,80
2016-08-21T12:10:58.742Z,70
2016-08-21T12:11:57.983Z,60
2016-08-21T12:12:57.282Z,65
2016-08-21T12:13:58.129Z,60
2016-08-21T12:14:58.554Z,60
2016-08-21T12:15:58.534Z,65
2016-08-21T12:16:57.789Z,80
2016-08-21T12:17:58.700Z,90
2016-08-21T12:18:57.018Z,105
2016-08-21T12:19:57.894Z,110
2016-08-21T12:20:58.503Z,100
2016-08-21T12:21:57.572Z,95
2016-08-21T12:22:57.549Z,80
2016-08-21T12:23:57.510Z,75
2016-08-21T12:24:58.131Z,70
2016-08-21T12:25:56.860Z,65
2016-08-21T12:26:58.231Z,55
2016-08-21T12:27:57.969Z,45
2016-08-21T12:28:58.133Z,45
2016-08-21T12:29:56.548Z,55
2016-08-21T12:30:57.830Z,70
2016-08-21T12:31:57.304Z,95
2016-08-21T12:32:57.964Z,70
2016-08-21T12:33:57.047Z,55
2016-08-21T12:34:56.964Z,45
2016-08-21T12:35:56.231Z,35
2016-08-21T12:36:57.098Z,25
2016-08-21T12:37:57.502Z,20
2016-08-21T12:38:56.843Z,30
2016-08-21T12:39:55.828Z,35
2016-08-21T12:40:56.057Z,45
2016-08-21T12:41:57.390Z,50
2016-08-21T12:42:56.005Z,70
2016-08-21T12:43:57.518Z,100
2016-08-21T12:44:57.645Z,85
2016-08-21T12:45:56.717Z,75
2016-08-21T12:46:56.701Z,70
2016-08-21T12:47:56.415Z,65
2016-08-21T12:48:56.636Z,60
2016-08-21T12:49:56.336Z,55
2016-08-21T12:50:56.978Z,45
2016-08-21T12:51:57.134Z,35
2016-08-21T12:52:56.160Z,25
2016-08-21T12:53:56.236Z,25
2016-08-21T12:54:56.088Z,25
2016-08-21T12:55:56.232Z,25
2016-08-21T12:56:56.849Z,20
2016-08-21T12:57:54.582Z,25
2016-08-21T12:58:54.963Z,30
2016-08-21T12:59:56.575Z,35
2016-08-21T13:00:55.813Z,45
2016-08-21T13:01:55.796Z,50
2016-08-21T13:02:55.724Z,60
2016-08-21T13:03:55.872Z,70
2016-08-21T13:04:55.651Z,80
2016-08-21T13:05:56.315Z,105
2016-08-21T13:06:55.566Z,115
2016-08-21T13:07:55.514Z,105
2016-08-21T13:08:56.571Z,110
2016-08-21T13:09:56.113Z,110
2016-08-21T13:10:54.876Z,135
2016-08-21T13:11:55.809Z,100
2016-08-21T13:12:54.592Z,160
2016-08-21T13:13:55.258Z,155
2016-08-21T13:14:53.804Z,135
2016-08-21T13:15:55.824Z,155
2016-08-21T13:16:55.294Z,145
2016-08-21T13:17:55.503Z,165
2016-08-21T13:18:55.694Z,170
2016-08-21T13:19:55.687Z,170
2016-08-21T13:20:55.297Z,170
2016-08-21T13:21:55.793Z,180
2016-08-21T13:22:55.063Z,110
2016-08-21T13:23:54.097Z,85
2016-08-21T13:24:54.768Z,75
2016-08-21T13:25:55.584Z,80
2016-08-21T13:26:54.654Z,80
2016-08-21T13:27:54.612Z,75
2016-08-21T13:28:55.262Z,70
2016-08-21T13:29:54.261Z,60
2016-08-21T13:30:54.891Z,60
2016-08-21T13:31:54.458Z,55
2016-08-21T13:32:55.014Z,55
2016-08-21T13:33:54.757Z,50
2016-08-21T13:34:53.683Z,50
2016-08-21T13:35:54.265Z,50
2016-08-21T13:36:54.937Z,45
2016-08-21T13:37:54.352Z,45
2016-08-21T13:38:53.448Z,50
2016-08-21T13:39:55.053Z,50
2016-08-21T13:40:55.150Z,50
2016-08-21T13:41:54.977Z,50
2016-08-21T13:42:54.163Z,50
2016-08-21T13:43:53.207Z,55
2016-08-21T13:44:54.572Z,60
2016-08-21T13:45:53.838Z,60
2016-08-21T13:46:53.290Z,65
2016-08-21T13:47:54.418Z,60
2016-08-21T13:48:53.713Z,55
2016-08-21T13:49:54.350Z,55
2016-08-21T13:50:54.192Z,60
2016-08-21T13:51:54.680Z,60
2016-08-21T13:52:54.804Z,60
2016-08-21T13:53:54.773Z,60
2016-08-21T13:54:54.391Z,60
2016-08-21T13:55:54.313Z,65
2016-08-21T13:56:52.641Z,70
2016-08-21T13:57:53.494Z,70
2016-08-21T13:58:53.303Z,75
2016-08-21T13:59:53.192Z,75
2016-08-21T14:00:53.925Z,75
2016-08-21T14:01:53.814Z,55
2016-08-21T14:02:52.115Z,50
2016-08-21T14:03:52.355Z,45
2016-08-21T14:04:53.885Z,40
2016-08-21T14:05:52.509Z,40
2016-08-21T14:06:53.093Z,35
2016-08-21T14:07:52.563Z,35
2016-08-21T14:08:53.088Z,30
2016-08-21T14:09:52.963Z,25
2016-08-21T14:10:51.371Z,25
2016-08-21T14:11:52.725Z,20
2016-08-21T14:12:53.335Z,20
2016-08-21T14:13:52.593Z,20
2016-08-21T14:14:52.751Z,30
2016-08-21T14:15:53.464Z,40
2016-08-21T14:16:52.653Z,45
2016-08-21T14:17:52.814Z,55
2016-08-21T14:18:52.584Z,55
2016-08-21T14:19:53.262Z,55
2016-08-21T14:20:53.222Z,50
2016-08-21T14:21:53.141Z,50
2016-08-21T14:22:53.093Z,50
2016-08-21T14:23:52.886Z,45